Buoy 62910

sailwx.info

Track history (hours):
 
Tides and Currents Weather Stations Pressure Air Temp Water Temp Dewpoint Dewpoint Depression Visibility Wind Speed Wind Dir Waves Ship Positions

Drifting buoy 62910

Last reported at 2014-Sep-03 03:09 UTC. Time now 2014-Sep-03 04:38 UTC.
Position N 38°53' E 004°13'.

Water temperature 26.5 ° C

Date/timePositionNaut miles runAvg speedWind from/ knotsBaromVisibWave heightAir tempDewpointWater temp
2014-Sep-03 03:09N 38°53' E 004°13'0 0.8 26.5
2014-Sep-03 02:34N 38°53' E 004°13'1 0.8 26.5
2014-Sep-03 00:52N 38°53' E 004°11'0 0.0 26.5
2014-Sep-02 21:57N 38°53' E 004°11'0 3.6 26.6
2014-Sep-02 21:50N 38°53' E 004°11'0 0.0 26.6
2014-Sep-02 21:09N 38°53' E 004°11'1 4.1 26.6
2014-Sep-02 21:00N 38°53' E 004°11'0 0.0 26.6
2014-Sep-02 20:25N 38°53' E 004°11'0 0.0 26.7
2014-Sep-02 20:14N 38°53' E 004°11'0 2.5 26.8
2014-Sep-02 20:07N 38°53' E 004°10'0 0.5 26.8
2014-Sep-02 19:25N 38°52' E 004°10'0 0.0 26.9
2014-Sep-02 18:49N 38°52' E 004°10'1 0.9 26.9
2014-Sep-02 17:53N 38°51' E 004°10'0 0.1 27.0
2014-Sep-02 17:07N 38°51' E 004°10'0 0.0 27.2
2014-Sep-02 16:30N 38°51' E 004°10'1 2.8 27.2
2014-Sep-02 16:14N 38°51' E 004°09'0 0.0 27.2
2014-Sep-02 14:53N 38°51' E 004°09'0 1.9 27.2
2014-Sep-02 14:49N 38°51' E 004°09'0 1.2 27.2
2014-Sep-02 14:31N 38°51' E 004°10'0 0.7 27.1
2014-Sep-02 14:16N 38°51' E 004°10'0 0.1 27.0
2014-Sep-02 13:07N 38°51' E 004°10'1 1.1 26.9
2014-Sep-02 12:35N 38°50' E 004°09'0 0.0 26.8
2014-Sep-02 12:08N 38°50' E 004°09'0 0.1 26.7
2014-Sep-02 11:24N 38°50' E 004°09'1 0.9 26.6
2014-Sep-02 10:49N 38°50' E 004°09'0 0.0 26.4
2014-Sep-02 10:31N 38°50' E 004°09'0 0.5 26.4
2014-Sep-02 09:42N 38°50' E 004°09'0 0.0 26.4
2014-Sep-02 09:36N 38°50' E 004°09'0 0.0 26.4
2014-Sep-02 08:54N 38°50' E 004°09'0 2.7 26.3
2014-Sep-02 08:49N 38°50' E 004°09'111.8 26.3
2014-Sep-02 08:45N 38°51' E 004°08'0 0.0 26.3
2014-Sep-02 08:01N 38°51' E 004°08'1 0.4 26.3
2014-Sep-02 06:42N 38°50' E 004°08'1 7.8 26.3
2014-Sep-02 06:38N 38°51' E 004°08'1 2.8 26.3
2014-Sep-02 06:27N 38°50' E 004°08'0 0.0 26.3
2014-Sep-02 05:08N 38°50' E 004°08'0 0.0 26.3
2014-Sep-02 05:03N 38°50' E 004°08'0 0.0 26.3
2014-Sep-02 04:59N 38°50' E 004°08'1 4.5 26.3
2014-Sep-02 04:47N 38°50' E 004°07'0 0.0 26.3
2014-Sep-02 04:24N 38°50' E 004°07'0 0.0 26.3
2014-Sep-02 03:25N 38°50' E 004°07'0 0.0 26.3
2014-Sep-02 03:22N 38°50' E 004°07'0 0.5 26.3
2014-Sep-02 02:50N 38°50' E 004°06'0 0.6 26.3
2014-Sep-02 02:45N 38°50' E 004°06'0 0.2 26.3
2014-Sep-02 01:08N 38°50' E 004°06'0 0.0 26.4
2014-Sep-02 01:04N 38°50' E 004°06'2 0.6 26.4
2014-Sep-01 22:16N 38°49' E 004°05'0 5.8 26.4
2014-Sep-01 22:11N 38°48' E 004°04'0 0.0 26.4
2014-Sep-01 21:29N 38°48' E 004°04'1 5.2
2014-Sep-01 21:23N 38°48' E 004°04'0 0.3 26.5
2014-Sep-01 20:30N 38°48' E 004°04'110.4 26.5
2014-Sep-01 20:27N 38°48' E 004°04'0 0.2 26.6
2014-Sep-01 19:46N 38°48' E 004°04'0 3.7 26.6
2014-Sep-01 19:43N 38°48' E 004°04'0 5.6 26.6
2014-Sep-01 19:39N 38°48' E 004°04'0 0.3 26.6
2014-Sep-01 19:20N 38°48' E 004°04'1 1.5 26.6
2014-Sep-01 18:55N 38°47' E 004°04'0 0.0 26.6
2014-Sep-01 18:16N 38°47' E 004°04'0 0.2 26.7
2014-Sep-01 17:39N 38°47' E 004°04'0 0.2 26.7
2014-Sep-01 16:44N 38°47' E 004°04'0 0.2 26.8
2014-Sep-01 15:03N 38°47' E 004°04'0 0.2 26.9
2014-Sep-01 14:26N 38°47' E 004°04'1 0.7 26.9
2014-Sep-01 13:17N 38°47' E 004°03'0 0.0 26.7
2014-Sep-01 12:42N 38°47' E 004°03'115.5 26.7
2014-Sep-01 12:39N 38°48' E 004°02'0 0.0 26.7
2014-Sep-01 11:42N 38°48' E 004°02'0 0.0 26.6
2014-Sep-01 11:01N 38°48' E 004°02'0 0.0 26.6
2014-Sep-01 10:56N 38°48' E 004°02'0 0.0 26.6
2014-Sep-01 10:53N 38°48' E 004°02'1 1.1 26.6
2014-Sep-01 10:08N 38°47' E 004°01'0 0.0 26.5
2014-Sep-01 10:05N 38°47' E 004°01'0 0.5 26.5
2014-Sep-01 09:15N 38°47' E 004°01'0 0.0 26.4
2014-Sep-01 09:12N 38°47' E 004°01'1 0.7 26.4
2014-Sep-01 08:24N 38°46' E 004°00'122.0 26.3
2014-Sep-01 08:21N 38°46' E 003°59'0 0.0 26.3
2014-Sep-01 07:10N 38°46' E 003°59'1 2.5 26.2
2014-Sep-01 06:52N 38°46' E 003°58'0 0.0 26.2
2014-Sep-01 05:33N 38°46' E 003°58'0 1.0 26.2
2014-Sep-01 05:13N 38°46' E 003°58'0 4.6 26.2
2014-Sep-01 05:08N 38°45' E 003°58'0 0.0 26.2
2014-Sep-01 04:34N 38°45' E 003°58'0 0.0 26.3
2014-Sep-01 03:50N 38°45' E 003°58'1 3.0 26.2
2014-Sep-01 03:33N 38°44' E 003°57'0 0.0 26.2
2014-Sep-01 03:01N 38°44' E 003°57'0 2.9 26.2
2014-Sep-01 02:57N 38°45' E 003°58'1 0.5 26.3
2014-Sep-01 01:17N 38°44' E 003°57'1 0.3 26.3
2014-Aug-31 21:48N 38°43' E 003°56'0 0.0 26.3
2014-Aug-31 21:43N 38°43' E 003°56'1 1.6 26.3
2014-Aug-31 20:48N 38°43' E 003°54'0 0.0 26.3
2014-Aug-31 20:00N 38°43' E 003°54'0 0.0 26.3
2014-Aug-31 19:50N 38°43' E 003°54'0 0.6 26.3
2014-Aug-31 19:14N 38°43' E 003°55'0 0.0 26.3
2014-Aug-31 18:14N 38°43' E 003°55'0 0.0 26.4
2014-Aug-31 18:09N 38°43' E 003°55'0 0.2 26.4
2014-Aug-31 17:05N 38°43' E 003°55'1 6.3 26.4
2014-Aug-31 16:53N 38°42' E 003°53'1 2.8 26.4
2014-Aug-31 16:35N 38°43' E 003°54'1 0.7 26.4
2014-Aug-31 15:23N 38°42' E 003°53'0 0.0 26.4
2014-Aug-31 15:16N 38°42' E 003°53'0 0.0 26.4
2014-Aug-31 15:11N 38°42' E 003°53'0 0.0 26.4
2014-Aug-31 15:09N 38°42' E 003°53'1 2.4 26.4
2014-Aug-31 14:35N 38°42' E 003°52'0 0.0 26.4
2014-Aug-31 13:30N 38°42' E 003°52'0 0.0 26.4
2014-Aug-31 12:51N 38°42' E 003°52'2 1.4 26.4
2014-Aug-31 11:10N 38°41' E 003°49'0 0.2 26.3
2014-Aug-31 10:26N 38°41' E 003°49'1 0.9 26.3
2014-Aug-31 09:33N 38°40' E 003°49'2 3.0 26.3
2014-Aug-31 08:44N 38°38' E 003°48'0 0.0 26.3
2014-Aug-31 07:53N 38°38' E 003°48'0 0.0 26.2
2014-Aug-31 07:23N 38°38' E 003°48'0 4.7 26.2
2014-Aug-31 07:17N 38°38' E 003°48'0 0.0 26.2
2014-Aug-31 07:03N 38°38' E 003°48'0 0.0 26.2
2014-Aug-31 06:03N 38°38' E 003°48'1 1.7 26.2
2014-Aug-31 05:42N 38°37' E 003°48'0 0.0 26.2
2014-Aug-31 05:31N 38°37' E 003°48'0 2.7 26.2
2014-Aug-31 05:21N 38°37' E 003°48'0 0.0 26.2
2014-Aug-31 04:21N 38°37' E 003°48'0 0.0 26.3
2014-Aug-31 03:59N 38°37' E 003°48'0 0.0 26.3
2014-Aug-31 03:49N 38°37' E 003°48'0 1.7 26.3
2014-Aug-31 03:45N 38°37' E 003°48'0 0.2 26.3
2014-Aug-31 03:10N 38°37' E 003°48'1 5.2 26.3
2014-Aug-31 03:03N 38°37' E 003°48'0 0.0 26.3
2014-Aug-31 01:31N 38°37' E 003°48'218.5 26.3
2014-Aug-31 01:24N 38°37' E 003°46'0 0.0 26.3
2014-Aug-30 22:55N 38°37' E 003°46'0 0.5 26.3
2014-Aug-30 22:01N 38°37' E 003°45'0 0.0 26.3
2014-Aug-30 21:18N 38°37' E 003°45'1 6.1 26.3
2014-Aug-30 21:09N 38°37' E 003°44'0 0.0 26.3
2014-Aug-30 20:29N 38°37' E 003°44'0 1.1
2014-Aug-30 20:25N 38°37' E 003°44'0 0.0 26.4
2014-Aug-30 20:20N 38°37' E 003°44'1 1.5 26.4
2014-Aug-30 19:29N 38°36' E 003°42'0 0.0 26.4
2014-Aug-30 18:43N 38°36' E 003°42'1 1.1 26.4
2014-Aug-30 17:27N 38°35' E 003°42'011.2 26.4
2014-Aug-30 17:25N 38°35' E 003°41'0 0.0 26.4
2014-Aug-30 17:07N 38°35' E 003°41'135.5 26.4
2014-Aug-30 17:06N 38°35' E 003°41'0 0.0 26.4
2014-Aug-30 15:48N 38°35' E 003°41'0 1.3 26.5
2014-Aug-30 15:27N 38°34' E 003°40'0 0.5 26.4
2014-Aug-30 15:20N 38°35' E 003°40'120.4 26.4
2014-Aug-30 15:18N 38°34' E 003°41'3 6.8 26.4
2014-Aug-30 14:48N 38°31' E 003°39'0 0.0 26.4
2014-Aug-30 13:44N 38°31' E 003°39'0 0.0
2014-Aug-30 13:07N 38°31' E 003°39'0 0.0 26.3
2014-Aug-30 13:04N 38°31' E 003°39'0 0.0 26.3
2014-Aug-30 11:34N 38°31' E 003°39'0 0.0 26.2
2014-Aug-30 11:21N 38°31' E 003°39'0 0.0 26.2
2014-Aug-30 10:48N 38°31' E 003°39'0 0.2 26.2
2014-Aug-30 09:55N 38°31' E 003°39'1 7.1 26.1
2014-Aug-30 09:49N 38°31' E 003°40'0 0.0 26.1
2014-Aug-30 09:09N 38°31' E 003°40'0 2.7 26.1
2014-Aug-30 09:00N 38°31' E 003°40'0 0.4 26.1
2014-Aug-30 08:09N 38°31' E 003°40'0 0.0 26.1
2014-Aug-30 06:35N 38°31' E 003°40'0 0.8 26.1
2014-Aug-30 06:10N 38°31' E 003°39'0 1.8 26.1
2014-Aug-30 06:05N 38°31' E 003°39'0 1.1 26.1
2014-Aug-30 05:42N 38°30' E 003°39'1 5.7 26.1
2014-Aug-30 05:35N 38°31' E 003°39'0 0.0 26.1
2014-Aug-30 04:56N 38°31' E 003°39'1 1.4 26.1
2014-Aug-30 04:26N 38°31' E 003°38'0 0.6 26.1
2014-Aug-30 03:58N 38°31' E 003°38'2 3.7 26.1
2014-Aug-30 03:19N 38°31' E 003°35'0 0.0 26.2
2014-Aug-30 03:14N 38°31' E 003°35'0 0.0 26.2
2014-Aug-30 01:43N 38°31' E 003°35'0 0.0 26.2
2014-Aug-30 01:38N 38°31' E 003°35'3 0.8 26.2
2014-Aug-29 22:26N 38°28' E 003°34'0 0.0
2014-Aug-29 21:38N 38°28' E 003°34'1 8.7 26.2
2014-Aug-29 21:33N 38°28' E 003°33'0 0.0 26.2
2014-Aug-29 21:27N 38°28' E 003°33'0 0.3 26.2
2014-Aug-29 20:52N 38°28' E 003°33'0 0.0 26.2
2014-Aug-29 20:43N 38°28' E 003°33'0 0.0 26.2
2014-Aug-29 19:54N 38°28' E 003°33'0 0.0 26.2
2014-Aug-29 19:48N 38°28' E 003°33'0 0.0 26.2
2014-Aug-29 19:17N 38°28' E 003°33'1 8.6 26.2
2014-Aug-29 19:13N 38°27' E 003°33'0 0.0 26.2
2014-Aug-29 19:08N 38°27' E 003°33'1 0.5 26.2
2014-Aug-29 17:50N 38°27' E 003°32'0 0.0 26.2
2014-Aug-29 17:34N 38°27' E 003°32'1 2.5 26.2
2014-Aug-29 17:18N 38°26' E 003°32'0 0.0 26.2
2014-Aug-29 16:11N 38°26' E 003°32'0 0.9 26.3
2014-Aug-29 15:38N 38°26' E 003°33'0 0.0 26.3
2014-Aug-29 15:34N 38°26' E 003°33'1 1.5 26.3
2014-Aug-29 14:59N 38°26' E 003°32'0 0.0 26.3
2014-Aug-29 14:27N 38°26' E 003°32'1 1.5
2014-Aug-29 13:52N 38°25' E 003°31'0 0.0 26.3
2014-Aug-29 13:20N 38°25' E 003°31'0 0.0 26.3
2014-Aug-29 13:14N 38°25' E 003°31'0 0.0 26.3
2014-Aug-29 11:53N 38°25' E 003°31'0 7.5 26.2
2014-Aug-29 11:50N 38°25' E 003°32'0 0.0 26.2
2014-Aug-29 11:37N 38°25' E 003°32'0 0.0
2014-Aug-29 11:34N 38°25' E 003°32'1 2.7 26.2
2014-Aug-29 11:07N 38°26' E 003°32'235.3 26.2
2014-Aug-29 11:04N 38°25' E 003°31'0 0.0 26.2
2014-Aug-29 10:18N 38°25' E 003°31'0 0.0 26.2
2014-Aug-29 10:14N 38°25' E 003°31'1 0.7 26.2
2014-Aug-29 09:27N 38°25' E 003°30'1 0.8 26.2
2014-Aug-29 08:37N 38°25' E 003°30'114.8 26.1
2014-Aug-29 08:32N 38°25' E 003°28'0 0.0 26.1
2014-Aug-29 07:03N 38°25' E 003°28'0 0.0 26.1
2014-Aug-29 06:33N 38°25' E 003°28'0 4.2 26.1
2014-Aug-29 06:28N 38°24' E 003°28'0 0.0 26.1
2014-Aug-29 05:49N 38°24' E 003°28'1 1.7 26.1
2014-Aug-29 05:26N 38°24' E 003°27'0 0.0 26.1
2014-Aug-29 04:51N 38°24' E 003°27'1 1.5 26.1
2014-Aug-29 04:14N 38°24' E 003°26'0 2.2
2014-Aug-29 04:09N 38°24' E 003°26'0 2.9 26.1
2014-Aug-29 04:01N 38°24' E 003°26'0 0.0 26.1
2014-Aug-29 03:44N 38°24' E 003°26'1 3.1 26.1
2014-Aug-29 03:30N 38°24' E 003°27'0 0.0 26.1
2014-Aug-29 03:24N 38°24' E 003°27'2 1.3 26.1
2014-Aug-29 01:54N 38°23' E 003°26'0 0.6 26.1
2014-Aug-29 01:49N 38°23' E 003°26'1 0.8 26.1
2014-Aug-29 00:05N 38°21' E 003°25'0 0.0 26.2
2014-Aug-28 21:59N 38°21' E 003°25'1 5.2 26.2
2014-Aug-28 21:52N 38°21' E 003°25'0 0.0 26.2
2014-Aug-28 21:01N 38°21' E 003°25'0 0.0 26.2
2014-Aug-28 20:15N 38°21' E 003°25'0 3.6 26.3
2014-Aug-28 20:08N 38°21' E 003°25'0 0.2 26.3
2014-Aug-28 19:47N 38°21' E 003°25'1 1.9 26.3
2014-Aug-28 19:22N 38°20' E 003°26'0 0.0 26.3
2014-Aug-28 18:15N 38°20' E 003°26'1 5.9 26.4
2014-Aug-28 18:06N 38°21' E 003°25'0 0.0 26.4
2014-Aug-28 17:24N 38°21' E 003°25'1 1.6
2014-Aug-28 16:38N 38°20' E 003°23'0 0.4 26.6
2014-Aug-28 15:48N 38°20' E 003°23'1 8.0 26.7
2014-Aug-28 15:43N 38°21' E 003°23'0 0.0 26.7
2014-Aug-28 15:09N 38°21' E 003°23'0 0.0 26.8
2014-Aug-28 14:55N 38°21' E 003°23'1 0.7 26.8
2014-Aug-28 14:08N 38°20' E 003°23'1 5.6 26.6
2014-Aug-28 14:02N 38°21' E 003°23'0 0.0 26.6
2014-Aug-28 13:29N 38°21' E 003°23'110.3
2014-Aug-28 13:22N 38°20' E 003°22'0 0.0 26.6
2014-Aug-28 12:13N 38°20' E 003°22'0 0.0 26.1
2014-Aug-28 11:46N 38°20' E 003°22'0 8.1 26.1
2014-Aug-28 11:43N 38°20' E 003°21'0 0.0 26.1
2014-Aug-28 11:27N 38°20' E 003°21'1 0.8 26.0
2014-Aug-28 10:36N 38°20' E 003°21'1 8.6 26.0
2014-Aug-28 10:32N 38°19' E 003°21'0 0.0 26.0
2014-Aug-28 09:51N 38°19' E 003°21'0 3.1 26.0
2014-Aug-28 09:48N 38°19' E 003°20'1 6.2 26.0
2014-Aug-28 09:43N 38°19' E 003°20'0 0.2 25.9
2014-Aug-28 08:53N 38°19' E 003°20'1 1.8 25.9
2014-Aug-28 08:07N 38°17' E 003°20'0 0.0 25.8
2014-Aug-28 07:32N 38°17' E 003°20'0 0.0 25.8
2014-Aug-28 06:51N 38°17' E 003°20'1 0.6 25.8
2014-Aug-28 06:00N 38°17' E 003°20'116.0 25.8
2014-Aug-28 05:58N 38°17' E 003°20'0 7.9 25.9
2014-Aug-28 05:56N 38°17' E 003°20'0 0.1 25.9
2014-Aug-28 05:14N 38°17' E 003°20'0 0.4 26.0
2014-Aug-28 04:19N 38°17' E 003°20'0 2.4 26.2
2014-Aug-28 04:12N 38°17' E 003°20'0 0.5 26.2
2014-Aug-28 03:40N 38°17' E 003°20'1 4.3 26.2
2014-Aug-28 03:32N 38°17' E 003°19'0 0.0 26.2
2014-Aug-28 02:37N 38°17' E 003°19'0 0.0 26.2
2014-Aug-28 02:02N 38°17' E 003°19'0 0.2 26.2
2014-Aug-28 00:21N 38°16' E 003°19'0 0.0 26.2
2014-Aug-27 22:19N 38°16' E 003°19'0 0.9 26.1
2014-Aug-27 22:14N 38°16' E 003°19'0 0.4 26.1
2014-Aug-27 21:33N 38°16' E 003°19'0 2.0 26.1
2014-Aug-27 21:26N 38°16' E 003°19'0 0.0 26.2
2014-Aug-27 20:38N 38°16' E 003°19'0 3.2 26.3
2014-Aug-27 20:29N 38°17' E 003°18'0 0.0
2014-Aug-27 20:15N 38°17' E 003°18'0 0.0 26.4
2014-Aug-27 19:49N 38°17' E 003°18'114.5 26.4
2014-Aug-27 19:43N 38°16' E 003°17'0 0.0
2014-Aug-27 18:56N 38°16' E 003°17'0 0.0 26.7
2014-Aug-27 18:38N 38°16' E 003°17'0 0.0 26.7
2014-Aug-27 17:38N 38°16' E 003°17'0 0.7 26.7
2014-Aug-27 17:01N 38°15' E 003°17'0 0.0 26.7
2014-Aug-27 16:56N 38°15' E 003°17'0 0.0 26.8
2014-Aug-27 16:01N 38°15' E 003°17'1 4.8 26.7
2014-Aug-27 15:50N 38°15' E 003°16'0 0.0 26.7
2014-Aug-27 15:22N 38°15' E 003°16'118.1 26.7
2014-Aug-27 15:18N 38°14' E 003°16'0 0.0 26.7
2014-Aug-27 14:18N 38°14' E 003°16'0 0.0 26.5
2014-Aug-27 14:13N 38°14' E 003°16'0 0.3 26.5
2014-Aug-27 13:36N 38°14' E 003°16'114.2
2014-Aug-27 13:31N 38°13' E 003°16'0 0.0 26.4
2014-Aug-27 11:50N 38°13' E 003°16'0 0.0 26.2
2014-Aug-27 11:46N 38°13' E 003°16'0 0.0 26.2
2014-Aug-27 10:57N 38°13' E 003°16'0 7.2 26.1
2014-Aug-27 10:53N 38°12' E 003°17'0 0.1 26.1
2014-Aug-27 10:09N 38°12' E 003°17'0 0.2 26.1
2014-Aug-27 09:18N 38°12' E 003°17'0 2.2 26.1
2014-Aug-27 09:15N 38°12' E 003°16'0 0.5 26.1
2014-Aug-27 08:22N 38°12' E 003°17'0 0.0 26.1
2014-Aug-27 07:21N 38°12' E 003°17'0 0.0 26.0
2014-Aug-27 06:27N 38°12' E 003°17'0 0.9 25.9
2014-Aug-27 06:14N 38°12' E 003°17'0 1.6
2014-Aug-27 06:07N 38°12' E 003°17'0 0.0 25.9
2014-Aug-27 05:39N 38°12' E 003°17'0 0.2 25.8
2014-Aug-27 04:46N 38°12' E 003°16'0 0.6 25.7
2014-Aug-27 04:35N 38°12' E 003°16'0 1.5
2014-Aug-27 04:32N 38°12' E 003°16'0 2.4 25.7
2014-Aug-27 04:27N 38°12' E 003°16'0 0.0 25.7
2014-Aug-27 03:58N 38°12' E 003°16'0 0.6 25.7
2014-Aug-27 03:49N 38°12' E 003°17'0 0.0 25.7
2014-Aug-27 03:07N 38°12' E 003°17'0 0.0 25.8
2014-Aug-27 02:53N 38°12' E 003°17'0 1.7 25.8
2014-Aug-27 02:49N 38°12' E 003°16'0 0.7 25.8
2014-Aug-27 02:16N 38°12' E 003°16'0 1.1 25.8
2014-Aug-27 02:12N 38°12' E 003°16'0 0.2 25.8
2014-Aug-27 00:28N 38°11' E 003°16'1 0.7 25.9
2014-Aug-26 22:33N 38°10' E 003°15'0 0.4 26.0
2014-Aug-26 21:44N 38°10' E 003°15'0 0.0 26.2
2014-Aug-26 21:00N 38°10' E 003°15'0 4.2 26.2
2014-Aug-26 20:54N 38°10' E 003°15'0 0.0 26.2
2014-Aug-26 20:12N 38°10' E 003°15'1 6.7 26.3
2014-Aug-26 20:07N 38°09' E 003°15'0 0.0 26.3
2014-Aug-26 19:17N 38°09' E 003°15'111.3 26.3
2014-Aug-26 19:12N 38°08' E 003°15'114.4 26.4
2014-Aug-26 19:08N 38°09' E 003°15'1 0.7 26.4
2014-Aug-26 17:49N 38°08' E 003°15'0 0.5 26.9
2014-Aug-26 17:28N 38°08' E 003°15'0 0.0 26.9
2014-Aug-26 17:26N 38°08' E 003°15'1 0.6 26.9
2014-Aug-26 16:12N 38°08' E 003°16'0 0.5 27.4
2014-Aug-26 15:47N 38°07' E 003°15'1 2.3 27.4
2014-Aug-26 15:27N 38°07' E 003°16'0 0.0
2014-Aug-26 14:29N 38°07' E 003°16'1 0.9
2014-Aug-26 13:52N 38°07' E 003°17'0 0.2 27.9
2014-Aug-26 12:08N 38°07' E 003°17'0 2.3 27.7
2014-Aug-26 12:04N 38°07' E 003°17'0 0.6 27.7
2014-Aug-26 11:17N 38°07' E 003°17'0 0.6 26.7
2014-Aug-26 10:29N 38°07' E 003°17'0 5.0
2014-Aug-26 10:25N 38°07' E 003°17'0 0.0 25.9
2014-Aug-26 09:41N 38°07' E 003°17'0 1.8 25.4
2014-Aug-26 09:36N 38°07' E 003°17'1 1.0 25.4
2014-Aug-26 08:52N 38°06' E 003°17'0 0.0 25.3
2014-Aug-26 07:53N 38°06' E 003°17'0 0.0 25.2
2014-Aug-26 07:00N 38°06' E 003°17'0 0.4 25.1
2014-Aug-26 06:22N 38°06' E 003°16'0 0.6 25.1
2014-Aug-26 06:07N 38°06' E 003°16'0 0.6 25.1
2014-Aug-26 05:21N 38°06' E 003°16'0 0.7 25.1
2014-Aug-26 04:50N 38°06' E 003°16'0 0.0 25.1
2014-Aug-26 04:44N 38°06' E 003°16'011.9 25.1
2014-Aug-26 04:43N 38°06' E 003°15'0 0.7 25.1
2014-Aug-26 04:02N 38°05' E 003°16'1 3.0 25.1
2014-Aug-26 03:37N 38°04' E 003°16'0 0.0 25.1
2014-Aug-26 03:04N 38°04' E 003°16'0 0.0 25.1
2014-Aug-26 02:27N 38°04' E 003°16'0 0.0 25.1
2014-Aug-26 02:21N 38°04' E 003°16'3 1.6 25.1
2014-Aug-26 00:39N 38°03' E 003°19'0 0.0 25.2
2014-Aug-25 22:56N 38°03' E 003°19'0 0.0 25.2
2014-Aug-25 22:12N 38°03' E 003°19'0 0.0 25.2
2014-Aug-25 22:05N 38°03' E 003°19'0 0.1 25.2
2014-Aug-25 21:19N 38°03' E 003°19'1 8.7 25.2
2014-Aug-25 21:12N 38°02' E 003°18'0 0.0 25.2
2014-Aug-25 20:28N 38°02' E 003°18'0 5.5
2014-Aug-25 20:23N 38°01' E 003°19'0 0.0 25.2
2014-Aug-25 19:40N 38°01' E 003°19'1 4.0 25.2
2014-Aug-25 19:31N 38°01' E 003°19'1 0.6 25.2
2014-Aug-25 18:05N 38°01' E 003°19'1 3.4 25.2
2014-Aug-25 17:49N 38°01' E 003°19'1 0.8 25.2
2014-Aug-25 16:19N 38°00' E 003°20'0 3.4 25.2
2014-Aug-25 16:12N 38°00' E 003°19'1 0.5 25.2
2014-Aug-25 14:42N 37°60' E 003°20'0 0.0 25.2
2014-Aug-25 14:36N 37°60' E 003°20'0 1.3 25.2
2014-Aug-25 14:29N 37°60' E 003°20'0 0.0 25.2
2014-Aug-25 13:59N 37°60' E 003°20'1 0.4 25.2
2014-Aug-25 12:13N 37°59' E 003°21'0 0.0 25.2
2014-Aug-25 11:36N 37°59' E 003°21'1 0.7 25.1
2014-Aug-25 10:50N 37°59' E 003°21'0 3.9 25.1
2014-Aug-25 10:43N 37°59' E 003°21'0 0.0 25.1
2014-Aug-25 10:01N 37°59' E 003°21'0 0.0 25.0
2014-Aug-25 09:57N 37°59' E 003°21'1 0.7 25.0
2014-Aug-25 09:08N 37°58' E 003°21'0 0.2 24.9
2014-Aug-25 08:20N 37°58' E 003°21'1 4.6 24.9
2014-Aug-25 08:13N 37°57' E 003°21'0 0.0 24.9
2014-Aug-25 07:29N 37°57' E 003°21'1 1.3 24.9
2014-Aug-25 06:32N 37°57' E 003°22'0 0.0 24.9
2014-Aug-25 06:29N 37°57' E 003°22'1 0.9 24.9
2014-Aug-25 05:50N 37°56' E 003°22'1 0.5 24.9
2014-Aug-25 04:46N 37°57' E 003°22'2 3.0 24.9
2014-Aug-25 04:13N 37°55' E 003°21'0 6.2 24.9
2014-Aug-25 04:09N 37°56' E 003°22'1 0.6 24.9
2014-Aug-25 03:11N 37°55' E 003°22'1 1.9 24.9
2014-Aug-25 02:37N 37°54' E 003°23'0 0.0 24.9
2014-Aug-25 02:34N 37°54' E 003°23'4 2.1 24.9
2014-Aug-25 00:50N 37°51' E 003°25'0 0.0 25.0
2014-Aug-24 22:30N 37°51' E 003°25'1 0.7 25.1
2014-Aug-24 21:35N 37°51' E 003°26'114.8 25.1
2014-Aug-24 21:32N 37°50' E 003°26'0 0.0 25.1
2014-Aug-24 20:55N 37°50' E 003°26'0 0.0 25.2
2014-Aug-24 20:48N 37°50' E 003°26'0 0.0 25.2
2014-Aug-24 20:09N 37°50' E 003°26'0 0.0 25.2
2014-Aug-24 20:00N 37°50' E 003°26'0 2.7 25.2
2014-Aug-24 19:55N 37°50' E 003°27'1 0.9
2014-Aug-24 18:33N 37°50' E 003°28'0 0.0 25.4
2014-Aug-24 18:14N 37°50' E 003°28'1 0.4 25.4
2014-Aug-24 16:47N 37°50' E 003°28'0 1.9 25.5
2014-Aug-24 16:35N 37°49' E 003°28'1 0.7 25.5
2014-Aug-24 14:51N 37°48' E 003°27'1 0.5 25.5
2014-Aug-24 12:28N 37°47' E 003°28'1 2.3 25.4
2014-Aug-24 11:58N 37°46' E 003°27'0 0.0 25.4
2014-Aug-24 11:06N 37°46' E 003°27'2 2.7 25.3
2014-Aug-24 10:19N 37°45' E 003°30'0 0.0 25.2
2014-Aug-24 09:34N 37°45' E 003°30'1 5.7 25.1
2014-Aug-24 09:27N 37°45' E 003°30'0 0.0 25.1
2014-Aug-24 09:24N 37°45' E 003°30'2 0.8 25.1
2014-Aug-24 06:50N 37°44' E 003°32'0 0.0 25.0
2014-Aug-24 06:43N 37°44' E 003°32'0 0.0 25.0
2014-Aug-24 06:24N 37°44' E 003°32'1 0.7 25.0
2014-Aug-24 05:13N 37°43' E 003°33'0 0.0 25.0
2014-Aug-24 05:09N 37°43' E 003°33'0 0.0
2014-Aug-24 05:04N 37°43' E 003°33'0 0.7 25.0
2014-Aug-24 04:41N 37°43' E 003°33'1 4.6 25.1
2014-Aug-24 04:22N 37°42' E 003°35'0 0.0 25.1
2014-Aug-24 03:36N 37°42' E 003°35'0 0.7 25.1
2014-Aug-24 03:23N 37°42' E 003°35'   25.2
Track history (hours):
 
Tides and Currents Weather Stations Pressure Air Temp Water Temp Dewpoint Dewpoint Depression Visibility Wind Speed Wind Dir Waves Ship Positions

Drifting buoy 62910

Last reported at 2014-Sep-03 03:09 UTC. Time now 2014-Sep-03 04:38 UTC.
Position N 38°53' E 004°13'.

Water temperature 26.5 ° C

Date/timePositionNaut miles runAvg speedWind from/ knotsBaromVisibWave heightAir tempDewpointWater temp
2014-Sep-03 03:09N 38°53' E 004°13'0 0.8 26.5
2014-Sep-03 02:34N 38°53' E 004°13'1 0.8 26.5
2014-Sep-03 00:52N 38°53' E 004°11'0 0.0 26.5
2014-Sep-02 21:57N 38°53' E 004°11'0 3.6 26.6
2014-Sep-02 21:50N 38°53' E 004°11'0 0.0 26.6
2014-Sep-02 21:09N 38°53' E 004°11'1 4.1 26.6
2014-Sep-02 21:00N 38°53' E 004°11'0 0.0 26.6
2014-Sep-02 20:25N 38°53' E 004°11'0 0.0 26.7
2014-Sep-02 20:14N 38°53' E 004°11'0 2.5 26.8
2014-Sep-02 20:07N 38°53' E 004°10'0 0.5 26.8
2014-Sep-02 19:25N 38°52' E 004°10'0 0.0 26.9
2014-Sep-02 18:49N 38°52' E 004°10'1 0.9 26.9
2014-Sep-02 17:53N 38°51' E 004°10'0 0.1 27.0
2014-Sep-02 17:07N 38°51' E 004°10'0 0.0 27.2
2014-Sep-02 16:30N 38°51' E 004°10'1 2.8 27.2
2014-Sep-02 16:14N 38°51' E 004°09'0 0.0 27.2
2014-Sep-02 14:53N 38°51' E 004°09'0 1.9 27.2
2014-Sep-02 14:49N 38°51' E 004°09'0 1.2 27.2
2014-Sep-02 14:31N 38°51' E 004°10'0 0.7 27.1
2014-Sep-02 14:16N 38°51' E 004°10'0 0.1 27.0
2014-Sep-02 13:07N 38°51' E 004°10'1 1.1 26.9
2014-Sep-02 12:35N 38°50' E 004°09'0 0.0 26.8
2014-Sep-02 12:08N 38°50' E 004°09'0 0.1 26.7
2014-Sep-02 11:24N 38°50' E 004°09'1 0.9 26.6
2014-Sep-02 10:49N 38°50' E 004°09'0 0.0 26.4
2014-Sep-02 10:31N 38°50' E 004°09'0 0.5 26.4
2014-Sep-02 09:42N 38°50' E 004°09'0 0.0 26.4
2014-Sep-02 09:36N 38°50' E 004°09'0 0.0 26.4
2014-Sep-02 08:54N 38°50' E 004°09'0 2.7 26.3
2014-Sep-02 08:49N 38°50' E 004°09'111.8 26.3
2014-Sep-02 08:45N 38°51' E 004°08'0 0.0 26.3
2014-Sep-02 08:01N 38°51' E 004°08'1 0.4 26.3
2014-Sep-02 06:42N 38°50' E 004°08'1 7.8 26.3
2014-Sep-02 06:38N 38°51' E 004°08'1 2.8 26.3
2014-Sep-02 06:27N 38°50' E 004°08'0 0.0 26.3
2014-Sep-02 05:08N 38°50' E 004°08'0 0.0 26.3
2014-Sep-02 05:03N 38°50' E 004°08'0 0.0 26.3
2014-Sep-02 04:59N 38°50' E 004°08'1 4.5 26.3
2014-Sep-02 04:47N 38°50' E 004°07'0 0.0 26.3
2014-Sep-02 04:24N 38°50' E 004°07'0 0.0 26.3
2014-Sep-02 03:25N 38°50' E 004°07'0 0.0 26.3
2014-Sep-02 03:22N 38°50' E 004°07'0 0.5 26.3
2014-Sep-02 02:50N 38°50' E 004°06'0 0.6 26.3
2014-Sep-02 02:45N 38°50' E 004°06'0 0.2 26.3
2014-Sep-02 01:08N 38°50' E 004°06'0 0.0 26.4
2014-Sep-02 01:04N 38°50' E 004°06'2 0.6 26.4
2014-Sep-01 22:16N 38°49' E 004°05'0 5.8 26.4
2014-Sep-01 22:11N 38°48' E 004°04'0 0.0 26.4
2014-Sep-01 21:29N 38°48' E 004°04'1 5.2
2014-Sep-01 21:23N 38°48' E 004°04'0 0.3 26.5
2014-Sep-01 20:30N 38°48' E 004°04'110.4 26.5
2014-Sep-01 20:27N 38°48' E 004°04'0 0.2 26.6
2014-Sep-01 19:46N 38°48' E 004°04'0 3.7 26.6
2014-Sep-01 19:43N 38°48' E 004°04'0 5.6 26.6
2014-Sep-01 19:39N 38°48' E 004°04'0 0.3 26.6
2014-Sep-01 19:20N 38°48' E 004°04'1 1.5 26.6
2014-Sep-01 18:55N 38°47' E 004°04'0 0.0 26.6
2014-Sep-01 18:16N 38°47' E 004°04'0 0.2 26.7
2014-Sep-01 17:39N 38°47' E 004°04'0 0.2 26.7
2014-Sep-01 16:44N 38°47' E 004°04'0 0.2 26.8
2014-Sep-01 15:03N 38°47' E 004°04'0 0.2 26.9
2014-Sep-01 14:26N 38°47' E 004°04'1 0.7 26.9
2014-Sep-01 13:17N 38°47' E 004°03'0 0.0 26.7
2014-Sep-01 12:42N 38°47' E 004°03'115.5 26.7
2014-Sep-01 12:39N 38°48' E 004°02'0 0.0 26.7
2014-Sep-01 11:42N 38°48' E 004°02'0 0.0 26.6
2014-Sep-01 11:01N 38°48' E 004°02'0 0.0 26.6
2014-Sep-01 10:56N 38°48' E 004°02'0 0.0 26.6
2014-Sep-01 10:53N 38°48' E 004°02'1 1.1 26.6
2014-Sep-01 10:08N 38°47' E 004°01'0 0.0 26.5
2014-Sep-01 10:05N 38°47' E 004°01'0 0.5 26.5
2014-Sep-01 09:15N 38°47' E 004°01'0 0.0 26.4
2014-Sep-01 09:12N 38°47' E 004°01'1 0.7 26.4
2014-Sep-01 08:24N 38°46' E 004°00'122.0 26.3
2014-Sep-01 08:21N 38°46' E 003°59'0 0.0 26.3
2014-Sep-01 07:10N 38°46' E 003°59'1 2.5 26.2
2014-Sep-01 06:52N 38°46' E 003°58'0 0.0 26.2
2014-Sep-01 05:33N 38°46' E 003°58'0 1.0 26.2
2014-Sep-01 05:13N 38°46' E 003°58'0 4.6 26.2
2014-Sep-01 05:08N 38°45' E 003°58'0 0.0 26.2
2014-Sep-01 04:34N 38°45' E 003°58'0 0.0 26.3
2014-Sep-01 03:50N 38°45' E 003°58'1 3.0 26.2
2014-Sep-01 03:33N 38°44' E 003°57'0 0.0 26.2
2014-Sep-01 03:01N 38°44' E 003°57'0 2.9 26.2
2014-Sep-01 02:57N 38°45' E 003°58'1 0.5 26.3
2014-Sep-01 01:17N 38°44' E 003°57'1 0.3 26.3
2014-Aug-31 21:48N 38°43' E 003°56'0 0.0 26.3
2014-Aug-31 21:43N 38°43' E 003°56'1 1.6 26.3
2014-Aug-31 20:48N 38°43' E 003°54'0 0.0 26.3
2014-Aug-31 20:00N 38°43' E 003°54'0 0.0 26.3
2014-Aug-31 19:50N 38°43' E 003°54'0 0.6 26.3
2014-Aug-31 19:14N 38°43' E 003°55'0 0.0 26.3
2014-Aug-31 18:14N 38°43' E 003°55'0 0.0 26.4
2014-Aug-31 18:09N 38°43' E 003°55'0 0.2 26.4
2014-Aug-31 17:05N 38°43' E 003°55'1 6.3 26.4
2014-Aug-31 16:53N 38°42' E 003°53'1 2.8 26.4
2014-Aug-31 16:35N 38°43' E 003°54'1 0.7 26.4
2014-Aug-31 15:23N 38°42' E 003°53'0 0.0 26.4
2014-Aug-31 15:16N 38°42' E 003°53'0 0.0 26.4
2014-Aug-31 15:11N 38°42' E 003°53'0 0.0 26.4
2014-Aug-31 15:09N 38°42' E 003°53'1 2.4 26.4
2014-Aug-31 14:35N 38°42' E 003°52'0 0.0 26.4
2014-Aug-31 13:30N 38°42' E 003°52'0 0.0 26.4
2014-Aug-31 12:51N 38°42' E 003°52'2 1.4 26.4
2014-Aug-31 11:10N 38°41' E 003°49'0 0.2 26.3
2014-Aug-31 10:26N 38°41' E 003°49'1 0.9 26.3
2014-Aug-31 09:33N 38°40' E 003°49'2 3.0 26.3
2014-Aug-31 08:44N 38°38' E 003°48'0 0.0 26.3
2014-Aug-31 07:53N 38°38' E 003°48'0 0.0 26.2
2014-Aug-31 07:23N 38°38' E 003°48'0 4.7 26.2
2014-Aug-31 07:17N 38°38' E 003°48'0 0.0 26.2
2014-Aug-31 07:03N 38°38' E 003°48'0 0.0 26.2
2014-Aug-31 06:03N 38°38' E 003°48'1 1.7 26.2
2014-Aug-31 05:42N 38°37' E 003°48'0 0.0 26.2
2014-Aug-31 05:31N 38°37' E 003°48'0 2.7 26.2
2014-Aug-31 05:21N 38°37' E 003°48'0 0.0 26.2
2014-Aug-31 04:21N 38°37' E 003°48'0 0.0 26.3
2014-Aug-31 03:59N 38°37' E 003°48'0 0.0 26.3
2014-Aug-31 03:49N 38°37' E 003°48'0 1.7 26.3
2014-Aug-31 03:45N 38°37' E 003°48'0 0.2 26.3
2014-Aug-31 03:10N 38°37' E 003°48'1 5.2 26.3
2014-Aug-31 03:03N 38°37' E 003°48'0 0.0 26.3
2014-Aug-31 01:31N 38°37' E 003°48'218.5 26.3
2014-Aug-31 01:24N 38°37' E 003°46'0 0.0 26.3
2014-Aug-30 22:55N 38°37' E 003°46'0 0.5 26.3
2014-Aug-30 22:01N 38°37' E 003°45'0 0.0 26.3
2014-Aug-30 21:18N 38°37' E 003°45'1 6.1 26.3
2014-Aug-30 21:09N 38°37' E 003°44'0 0.0 26.3
2014-Aug-30 20:29N 38°37' E 003°44'0 1.1
2014-Aug-30 20:25N 38°37' E 003°44'0 0.0 26.4
2014-Aug-30 20:20N 38°37' E 003°44'1 1.5 26.4
2014-Aug-30 19:29N 38°36' E 003°42'0 0.0 26.4
2014-Aug-30 18:43N 38°36' E 003°42'1 1.1 26.4
2014-Aug-30 17:27N 38°35' E 003°42'011.2 26.4
2014-Aug-30 17:25N 38°35' E 003°41'0 0.0 26.4
2014-Aug-30 17:07N 38°35' E 003°41'135.5 26.4
2014-Aug-30 17:06N 38°35' E 003°41'0 0.0 26.4
2014-Aug-30 15:48N 38°35' E 003°41'0 1.3 26.5
2014-Aug-30 15:27N 38°34' E 003°40'0 0.5 26.4
2014-Aug-30 15:20N 38°35' E 003°40'120.4 26.4
2014-Aug-30 15:18N 38°34' E 003°41'3 6.8 26.4
2014-Aug-30 14:48N 38°31' E 003°39'0 0.0 26.4
2014-Aug-30 13:44N 38°31' E 003°39'0 0.0
2014-Aug-30 13:07N 38°31' E 003°39'0 0.0 26.3
2014-Aug-30 13:04N 38°31' E 003°39'0 0.0 26.3
2014-Aug-30 11:34N 38°31' E 003°39'0 0.0 26.2
2014-Aug-30 11:21N 38°31' E 003°39'0 0.0 26.2
2014-Aug-30 10:48N 38°31' E 003°39'0 0.2 26.2
2014-Aug-30 09:55N 38°31' E 003°39'1 7.1 26.1
2014-Aug-30 09:49N 38°31' E 003°40'0 0.0 26.1
2014-Aug-30 09:09N 38°31' E 003°40'0 2.7 26.1
2014-Aug-30 09:00N 38°31' E 003°40'0 0.4 26.1
2014-Aug-30 08:09N 38°31' E 003°40'0 0.0 26.1
2014-Aug-30 06:35N 38°31' E 003°40'0 0.8 26.1
2014-Aug-30 06:10N 38°31' E 003°39'0 1.8 26.1
2014-Aug-30 06:05N 38°31' E 003°39'0 1.1 26.1
2014-Aug-30 05:42N 38°30' E 003°39'1 5.7 26.1
2014-Aug-30 05:35N 38°31' E 003°39'0 0.0 26.1
2014-Aug-30 04:56N 38°31' E 003°39'1 1.4 26.1
2014-Aug-30 04:26N 38°31' E 003°38'0 0.6 26.1
2014-Aug-30 03:58N 38°31' E 003°38'2 3.7 26.1
2014-Aug-30 03:19N 38°31' E 003°35'0 0.0 26.2
2014-Aug-30 03:14N 38°31' E 003°35'0 0.0 26.2
2014-Aug-30 01:43N 38°31' E 003°35'0 0.0 26.2
2014-Aug-30 01:38N 38°31' E 003°35'3 0.8 26.2
2014-Aug-29 22:26N 38°28' E 003°34'0 0.0
2014-Aug-29 21:38N 38°28' E 003°34'1 8.7 26.2
2014-Aug-29 21:33N 38°28' E 003°33'0 0.0 26.2
2014-Aug-29 21:27N 38°28' E 003°33'0 0.3 26.2
2014-Aug-29 20:52N 38°28' E 003°33'0 0.0 26.2
2014-Aug-29 20:43N 38°28' E 003°33'0 0.0 26.2
2014-Aug-29 19:54N 38°28' E 003°33'0 0.0 26.2
2014-Aug-29 19:48N 38°28' E 003°33'0 0.0 26.2
2014-Aug-29 19:17N 38°28' E 003°33'1 8.6 26.2
2014-Aug-29 19:13N 38°27' E 003°33'0 0.0 26.2
2014-Aug-29 19:08N 38°27' E 003°33'1 0.5 26.2
2014-Aug-29 17:50N 38°27' E 003°32'0 0.0 26.2
2014-Aug-29 17:34N 38°27' E 003°32'1 2.5 26.2
2014-Aug-29 17:18N 38°26' E 003°32'0 0.0 26.2
2014-Aug-29 16:11N 38°26' E 003°32'0 0.9 26.3
2014-Aug-29 15:38N 38°26' E 003°33'0 0.0 26.3
2014-Aug-29 15:34N 38°26' E 003°33'1 1.5 26.3
2014-Aug-29 14:59N 38°26' E 003°32'0 0.0 26.3
2014-Aug-29 14:27N 38°26' E 003°32'1 1.5
2014-Aug-29 13:52N 38°25' E 003°31'0 0.0 26.3
2014-Aug-29 13:20N 38°25' E 003°31'0 0.0 26.3
2014-Aug-29 13:14N 38°25' E 003°31'0 0.0 26.3
2014-Aug-29 11:53N 38°25' E 003°31'0 7.5 26.2
2014-Aug-29 11:50N 38°25' E 003°32'0 0.0 26.2
2014-Aug-29 11:37N 38°25' E 003°32'0 0.0
2014-Aug-29 11:34N 38°25' E 003°32'1 2.7 26.2
2014-Aug-29 11:07N 38°26' E 003°32'235.3 26.2
2014-Aug-29 11:04N 38°25' E 003°31'0 0.0 26.2
2014-Aug-29 10:18N 38°25' E 003°31'0 0.0 26.2
2014-Aug-29 10:14N 38°25' E 003°31'1 0.7 26.2
2014-Aug-29 09:27N 38°25' E 003°30'1 0.8 26.2
2014-Aug-29 08:37N 38°25' E 003°30'114.8 26.1
2014-Aug-29 08:32N 38°25' E 003°28'0 0.0 26.1
2014-Aug-29 07:03N 38°25' E 003°28'0 0.0 26.1
2014-Aug-29 06:33N 38°25' E 003°28'0 4.2 26.1
2014-Aug-29 06:28N 38°24' E 003°28'0 0.0 26.1
2014-Aug-29 05:49N 38°24' E 003°28'1 1.7 26.1
2014-Aug-29 05:26N 38°24' E 003°27'0 0.0 26.1
2014-Aug-29 04:51N 38°24' E 003°27'1 1.5 26.1
2014-Aug-29 04:14N 38°24' E 003°26'0 2.2
2014-Aug-29 04:09N 38°24' E 003°26'0 2.9 26.1
2014-Aug-29 04:01N 38°24' E 003°26'0 0.0 26.1
2014-Aug-29 03:44N 38°24' E 003°26'1 3.1 26.1
2014-Aug-29 03:30N 38°24' E 003°27'0 0.0 26.1
2014-Aug-29 03:24N 38°24' E 003°27'2 1.3 26.1
2014-Aug-29 01:54N 38°23' E 003°26'0 0.6 26.1
2014-Aug-29 01:49N 38°23' E 003°26'1 0.8 26.1
2014-Aug-29 00:05N 38°21' E 003°25'0 0.0 26.2
2014-Aug-28 21:59N 38°21' E 003°25'1 5.2 26.2
2014-Aug-28 21:52N 38°21' E 003°25'0 0.0 26.2
2014-Aug-28 21:01N 38°21' E 003°25'0 0.0 26.2
2014-Aug-28 20:15N 38°21' E 003°25'0 3.6 26.3
2014-Aug-28 20:08N 38°21' E 003°25'0 0.2 26.3
2014-Aug-28 19:47N 38°21' E 003°25'1 1.9 26.3
2014-Aug-28 19:22N 38°20' E 003°26'0 0.0 26.3
2014-Aug-28 18:15N 38°20' E 003°26'1 5.9 26.4
2014-Aug-28 18:06N 38°21' E 003°25'0 0.0 26.4
2014-Aug-28 17:24N 38°21' E 003°25'1 1.6
2014-Aug-28 16:38N 38°20' E 003°23'0 0.4 26.6
2014-Aug-28 15:48N 38°20' E 003°23'1 8.0 26.7
2014-Aug-28 15:43N 38°21' E 003°23'0 0.0 26.7
2014-Aug-28 15:09N 38°21' E 003°23'0 0.0 26.8
2014-Aug-28 14:55N 38°21' E 003°23'1 0.7 26.8
2014-Aug-28 14:08N 38°20' E 003°23'1 5.6 26.6
2014-Aug-28 14:02N 38°21' E 003°23'0 0.0 26.6
2014-Aug-28 13:29N 38°21' E 003°23'110.3
2014-Aug-28 13:22N 38°20' E 003°22'0 0.0 26.6
2014-Aug-28 12:13N 38°20' E 003°22'0 0.0 26.1
2014-Aug-28 11:46N 38°20' E 003°22'0 8.1 26.1
2014-Aug-28 11:43N 38°20' E 003°21'0 0.0 26.1
2014-Aug-28 11:27N 38°20' E 003°21'1 0.8 26.0
2014-Aug-28 10:36N 38°20' E 003°21'1 8.6 26.0
2014-Aug-28 10:32N 38°19' E 003°21'0 0.0 26.0
2014-Aug-28 09:51N 38°19' E 003°21'0 3.1 26.0
2014-Aug-28 09:48N 38°19' E 003°20'1 6.2 26.0
2014-Aug-28 09:43N 38°19' E 003°20'0 0.2 25.9
2014-Aug-28 08:53N 38°19' E 003°20'1 1.8 25.9
2014-Aug-28 08:07N 38°17' E 003°20'0 0.0 25.8
2014-Aug-28 07:32N 38°17' E 003°20'0 0.0 25.8
2014-Aug-28 06:51N 38°17' E 003°20'1 0.6 25.8
2014-Aug-28 06:00N 38°17' E 003°20'116.0 25.8
2014-Aug-28 05:58N 38°17' E 003°20'0 7.9 25.9
2014-Aug-28 05:56N 38°17' E 003°20'0 0.1 25.9
2014-Aug-28 05:14N 38°17' E 003°20'0 0.4 26.0
2014-Aug-28 04:19N 38°17' E 003°20'0 2.4 26.2
2014-Aug-28 04:12N 38°17' E 003°20'0 0.5 26.2
2014-Aug-28 03:40N 38°17' E 003°20'1 4.3 26.2
2014-Aug-28 03:32N 38°17' E 003°19'0 0.0 26.2
2014-Aug-28 02:37N 38°17' E 003°19'0 0.0 26.2
2014-Aug-28 02:02N 38°17' E 003°19'0 0.2 26.2
2014-Aug-28 00:21N 38°16' E 003°19'0 0.0 26.2
2014-Aug-27 22:19N 38°16' E 003°19'0 0.9 26.1
2014-Aug-27 22:14N 38°16' E 003°19'0 0.4 26.1
2014-Aug-27 21:33N 38°16' E 003°19'0 2.0 26.1
2014-Aug-27 21:26N 38°16' E 003°19'0 0.0 26.2
2014-Aug-27 20:38N 38°16' E 003°19'0 3.2 26.3
2014-Aug-27 20:29N 38°17' E 003°18'0 0.0
2014-Aug-27 20:15N 38°17' E 003°18'0 0.0 26.4
2014-Aug-27 19:49N 38°17' E 003°18'114.5 26.4
2014-Aug-27 19:43N 38°16' E 003°17'0 0.0
2014-Aug-27 18:56N 38°16' E 003°17'0 0.0 26.7
2014-Aug-27 18:38N 38°16' E 003°17'0 0.0 26.7
2014-Aug-27 17:38N 38°16' E 003°17'0 0.7 26.7
2014-Aug-27 17:01N 38°15' E 003°17'0 0.0 26.7
2014-Aug-27 16:56N 38°15' E 003°17'0 0.0 26.8
2014-Aug-27 16:01N 38°15' E 003°17'1 4.8 26.7
2014-Aug-27 15:50N 38°15' E 003°16'0 0.0 26.7
2014-Aug-27 15:22N 38°15' E 003°16'118.1 26.7
2014-Aug-27 15:18N 38°14' E 003°16'0 0.0 26.7
2014-Aug-27 14:18N 38°14' E 003°16'0 0.0 26.5
2014-Aug-27 14:13N 38°14' E 003°16'0 0.3 26.5
2014-Aug-27 13:36N 38°14' E 003°16'114.2
2014-Aug-27 13:31N 38°13' E 003°16'0 0.0 26.4
2014-Aug-27 11:50N 38°13' E 003°16'0 0.0 26.2
2014-Aug-27 11:46N 38°13' E 003°16'0 0.0 26.2
2014-Aug-27 10:57N 38°13' E 003°16'0 7.2 26.1
2014-Aug-27 10:53N 38°12' E 003°17'0 0.1 26.1
2014-Aug-27 10:09N 38°12' E 003°17'0 0.2 26.1
2014-Aug-27 09:18N 38°12' E 003°17'0 2.2 26.1
2014-Aug-27 09:15N 38°12' E 003°16'0 0.5 26.1
2014-Aug-27 08:22N 38°12' E 003°17'0 0.0 26.1
2014-Aug-27 07:21N 38°12' E 003°17'0 0.0 26.0
2014-Aug-27 06:27N 38°12' E 003°17'0 0.9 25.9
2014-Aug-27 06:14N 38°12' E 003°17'0 1.6
2014-Aug-27 06:07N 38°12' E 003°17'0 0.0 25.9
2014-Aug-27 05:39N 38°12' E 003°17'0 0.2 25.8
2014-Aug-27 04:46N 38°12' E 003°16'0 0.6 25.7
2014-Aug-27 04:35N 38°12' E 003°16'0 1.5
2014-Aug-27 04:32N 38°12' E 003°16'0 2.4 25.7
2014-Aug-27 04:27N 38°12' E 003°16'0 0.0 25.7
2014-Aug-27 03:58N 38°12' E 003°16'0 0.6 25.7
2014-Aug-27 03:49N 38°12' E 003°17'0 0.0 25.7
2014-Aug-27 03:07N 38°12' E 003°17'0 0.0 25.8
2014-Aug-27 02:53N 38°12' E 003°17'0 1.7 25.8
2014-Aug-27 02:49N 38°12' E 003°16'0 0.7 25.8
2014-Aug-27 02:16N 38°12' E 003°16'0 1.1 25.8
2014-Aug-27 02:12N 38°12' E 003°16'0 0.2 25.8
2014-Aug-27 00:28N 38°11' E 003°16'1 0.7 25.9
2014-Aug-26 22:33N 38°10' E 003°15'0 0.4 26.0
2014-Aug-26 21:44N 38°10' E 003°15'0 0.0 26.2
2014-Aug-26 21:00N 38°10' E 003°15'0 4.2 26.2
2014-Aug-26 20:54N 38°10' E 003°15'0 0.0 26.2
2014-Aug-26 20:12N 38°10' E 003°15'1 6.7 26.3
2014-Aug-26 20:07N 38°09' E 003°15'0 0.0 26.3
2014-Aug-26 19:17N 38°09' E 003°15'111.3 26.3
2014-Aug-26 19:12N 38°08' E 003°15'114.4 26.4
2014-Aug-26 19:08N 38°09' E 003°15'1 0.7 26.4
2014-Aug-26 17:49N 38°08' E 003°15'0 0.5 26.9
2014-Aug-26 17:28N 38°08' E 003°15'0 0.0 26.9
2014-Aug-26 17:26N 38°08' E 003°15'1 0.6 26.9
2014-Aug-26 16:12N 38°08' E 003°16'0 0.5 27.4
2014-Aug-26 15:47N 38°07' E 003°15'1 2.3 27.4
2014-Aug-26 15:27N 38°07' E 003°16'0 0.0
2014-Aug-26 14:29N 38°07' E 003°16'1 0.9
2014-Aug-26 13:52N 38°07' E 003°17'0 0.2 27.9
2014-Aug-26 12:08N 38°07' E 003°17'0 2.3 27.7
2014-Aug-26 12:04N 38°07' E 003°17'0 0.6 27.7
2014-Aug-26 11:17N 38°07' E 003°17'0 0.6 26.7
2014-Aug-26 10:29N 38°07' E 003°17'0 5.0
2014-Aug-26 10:25N 38°07' E 003°17'0 0.0 25.9
2014-Aug-26 09:41N 38°07' E 003°17'0 1.8 25.4
2014-Aug-26 09:36N 38°07' E 003°17'1 1.0 25.4
2014-Aug-26 08:52N 38°06' E 003°17'0 0.0 25.3
2014-Aug-26 07:53N 38°06' E 003°17'0 0.0 25.2
2014-Aug-26 07:00N 38°06' E 003°17'0 0.4 25.1
2014-Aug-26 06:22N 38°06' E 003°16'0 0.6 25.1
2014-Aug-26 06:07N 38°06' E 003°16'0 0.6 25.1
2014-Aug-26 05:21N 38°06' E 003°16'0 0.7 25.1
2014-Aug-26 04:50N 38°06' E 003°16'0 0.0 25.1
2014-Aug-26 04:44N 38°06' E 003°16'011.9 25.1
2014-Aug-26 04:43N 38°06' E 003°15'0 0.7 25.1
2014-Aug-26 04:02N 38°05' E 003°16'1 3.0 25.1
2014-Aug-26 03:37N 38°04' E 003°16'0 0.0 25.1
2014-Aug-26 03:04N 38°04' E 003°16'0 0.0 25.1
2014-Aug-26 02:27N 38°04' E 003°16'0 0.0 25.1
2014-Aug-26 02:21N 38°04' E 003°16'3 1.6 25.1
2014-Aug-26 00:39N 38°03' E 003°19'0 0.0 25.2
2014-Aug-25 22:56N 38°03' E 003°19'0 0.0 25.2
2014-Aug-25 22:12N 38°03' E 003°19'0 0.0 25.2
2014-Aug-25 22:05N 38°03' E 003°19'0 0.1 25.2
2014-Aug-25 21:19N 38°03' E 003°19'1 8.7 25.2
2014-Aug-25 21:12N 38°02' E 003°18'0 0.0 25.2
2014-Aug-25 20:28N 38°02' E 003°18'0 5.5
2014-Aug-25 20:23N 38°01' E 003°19'0 0.0 25.2
2014-Aug-25 19:40N 38°01' E 003°19'1 4.0 25.2
2014-Aug-25 19:31N 38°01' E 003°19'1 0.6 25.2
2014-Aug-25 18:05N 38°01' E 003°19'1 3.4 25.2
2014-Aug-25 17:49N 38°01' E 003°19'1 0.8 25.2
2014-Aug-25 16:19N 38°00' E 003°20'0 3.4 25.2
2014-Aug-25 16:12N 38°00' E 003°19'1 0.5 25.2
2014-Aug-25 14:42N 37°60' E 003°20'0 0.0 25.2
2014-Aug-25 14:36N 37°60' E 003°20'0 1.3 25.2
2014-Aug-25 14:29N 37°60' E 003°20'0 0.0 25.2
2014-Aug-25 13:59N 37°60' E 003°20'1 0.4 25.2
2014-Aug-25 12:13N 37°59' E 003°21'0 0.0 25.2
2014-Aug-25 11:36N 37°59' E 003°21'1 0.7 25.1
2014-Aug-25 10:50N 37°59' E 003°21'0 3.9 25.1
2014-Aug-25 10:43N 37°59' E 003°21'0 0.0 25.1
2014-Aug-25 10:01N 37°59' E 003°21'0 0.0 25.0
2014-Aug-25 09:57N 37°59' E 003°21'1 0.7 25.0
2014-Aug-25 09:08N 37°58' E 003°21'0 0.2 24.9
2014-Aug-25 08:20N 37°58' E 003°21'1 4.6 24.9
2014-Aug-25 08:13N 37°57' E 003°21'0 0.0 24.9
2014-Aug-25 07:29N 37°57' E 003°21'1 1.3 24.9
2014-Aug-25 06:32N 37°57' E 003°22'0 0.0 24.9
2014-Aug-25 06:29N 37°57' E 003°22'1 0.9 24.9
2014-Aug-25 05:50N 37°56' E 003°22'1 0.5 24.9
2014-Aug-25 04:46N 37°57' E 003°22'2 3.0 24.9
2014-Aug-25 04:13N 37°55' E 003°21'0 6.2 24.9
2014-Aug-25 04:09N 37°56' E 003°22'1 0.6 24.9
2014-Aug-25 03:11N 37°55' E 003°22'1 1.9 24.9
2014-Aug-25 02:37N 37°54' E 003°23'0 0.0 24.9
2014-Aug-25 02:34N 37°54' E 003°23'4 2.1 24.9
2014-Aug-25 00:50N 37°51' E 003°25'0 0.0 25.0
2014-Aug-24 22:30N 37°51' E 003°25'1 0.7 25.1
2014-Aug-24 21:35N 37°51' E 003°26'114.8 25.1
2014-Aug-24 21:32N 37°50' E 003°26'0 0.0 25.1
2014-Aug-24 20:55N 37°50' E 003°26'0 0.0 25.2
2014-Aug-24 20:48N 37°50' E 003°26'0 0.0 25.2
2014-Aug-24 20:09N 37°50' E 003°26'0 0.0 25.2
2014-Aug-24 20:00N 37°50' E 003°26'0 2.7 25.2
2014-Aug-24 19:55N 37°50' E 003°27'1 0.9
2014-Aug-24 18:33N 37°50' E 003°28'0 0.0 25.4
2014-Aug-24 18:14N 37°50' E 003°28'1 0.4 25.4
2014-Aug-24 16:47N 37°50' E 003°28'0 1.9 25.5
2014-Aug-24 16:35N 37°49' E 003°28'1 0.7 25.5
2014-Aug-24 14:51N 37°48' E 003°27'1 0.5 25.5
2014-Aug-24 12:28N 37°47' E 003°28'1 2.3 25.4
2014-Aug-24 11:58N 37°46' E 003°27'0 0.0 25.4
2014-Aug-24 11:06N 37°46' E 003°27'2 2.7 25.3
2014-Aug-24 10:19N 37°45' E 003°30'0 0.0 25.2
2014-Aug-24 09:34N 37°45' E 003°30'1 5.7 25.1
2014-Aug-24 09:27N 37°45' E 003°30'0 0.0 25.1
2014-Aug-24 09:24N 37°45' E 003°30'2 0.8 25.1
2014-Aug-24 06:50N 37°44' E 003°32'0 0.0 25.0
2014-Aug-24 06:43N 37°44' E 003°32'0 0.0 25.0
2014-Aug-24 06:24N 37°44' E 003°32'1 0.7 25.0
2014-Aug-24 05:13N 37°43' E 003°33'0 0.0 25.0
2014-Aug-24 05:09N 37°43' E 003°33'0 0.0
2014-Aug-24 05:04N 37°43' E 003°33'0 0.7 25.0
2014-Aug-24 04:41N 37°43' E 003°33'1 4.6 25.1
2014-Aug-24 04:22N 37°42' E 003°35'0 0.0 25.1
2014-Aug-24 03:36N 37°42' E 003°35'0 0.7 25.1
2014-Aug-24 03:23N 37°42' E 003°35'   25.2

Dump ship's entire track history